Time;durP1;ratioP1;P1;durP2;ratioP2;P2;SDS_P1;SDS_P2;PMS_P1;PMS_P2;Temp;Humidity;BMP_temperature;BMP_pressure;BME280_temperature;BME280_humidity;BME280_pressure;Samples;Min_cycle;Max_cycle;Signal;HPM_P1;HPM_P2
2022/01/14 00:03:14;;;;;;;21.07;5.57;;;;;;;;;;10382071;28;20052;-73
2022/01/14 00:08:19;;;;;;;29.37;8.67;;;;;;;;;;10372873;28;20117;-73
2022/01/14 00:13:39;;;;;;;40.23;10.03;;;;;;;;;;10373887;28;20095;-73
2022/01/14 00:18:43;;;;;;;23.03;6.37;;;;;;;;;;10368285;28;20033;-70
2022/01/14 00:23:50;;;;;;;;;;;;;;;;;;10374318;28;20409;-71
2022/01/14 00:34:16;;;;;;;26.50;8.33;;;;;;;;;;10376742;28;20037;-69
2022/01/14 00:39:18;;;;;;;30.40;9.30;;;;;;;;;;10377364;28;20052;-71
2022/01/14 00:44:21;;;;;;;36.33;9.33;;;;;;;;;;10373839;28;20050;-70
2022/01/14 00:49:26;;;;;;;21.63;6.93;;;;;;;;;;10372139;28;20065;-70
2022/01/14 00:54:29;;;;;;;36.77;8.97;;;;;;;;;;10371801;28;20132;-69
2022/01/14 00:59:32;;;;;;;29.00;7.93;;;;;;;;;;10376632;28;20524;-71
2022/01/14 01:04:38;;;;;;;36.27;9.63;;;;;;;;;;10377998;28;20115;-71
2022/01/14 01:09:46;;;;;;;25.60;5.47;;;;;;;;;;10373061;28;20129;-71
2022/01/14 01:14:52;;;;;;;35.63;9.40;;;;;;;;;;10374738;28;20098;-70
2022/01/14 01:19:56;;;;;;;37.03;9.53;;;;;;;;;;10375528;28;20125;-70
2022/01/14 01:24:59;;;;;;;25.98;7.43;;;;;;;;;;10374413;28;20052;-72
2022/01/14 01:30:13;;;;;;;42.47;10.03;;;;;;;;;;10372940;28;20030;-71
2022/01/14 01:35:18;;;;;;;39.10;9.50;;;;;;;;;;10372101;28;20124;-70
2022/01/14 01:40:20;;;;;;;;;;;;;;;;;;10374106;28;20618;-71
2022/01/14 01:45:25;;;;;;;8.43;2.77;;;;;;;;;;10382306;28;19996;-72
2022/01/14 01:50:31;;;;;;;5.43;2.30;;;;;;;;;;10376708;28;20063;-71
2022/01/14 01:55:34;;;;;;;24.27;7.20;;;;;;;;;;10380729;28;20073;-72
2022/01/14 02:00:37;;;;;;;28.57;8.70;;;;;;;;;;10395444;28;20028;-70
2022/01/14 02:05:42;;;;;;;24.63;6.27;;;;;;;;;;10392687;28;20049;-72
2022/01/14 02:10:45;;;;;;;39.30;9.53;;;;;;;;;;10381984;28;20037;-71
2022/01/14 02:16:16;;;;;;;43.07;10.83;;;;;;;;;;10375130;28;20513;-72
2022/01/14 02:26:46;;;;;;;4.93;2.07;;;;;;;;;;10374149;28;20049;-70
2022/01/14 02:31:53;;;;;;;33.20;9.43;;;;;;;;;;10381580;28;20069;-71
2022/01/14 02:36:58;;;;;;;27.73;9.07;;;;;;;;;;10382953;28;20064;-70
2022/01/14 02:42:02;;;;;;;27.03;7.83;;;;;;;;;;10380086;28;20379;-69
2022/01/14 02:47:06;;;;;;;30.13;7.33;;;;;;;;;;10377929;28;20052;-70
2022/01/14 02:52:10;;;;;;;17.38;6.43;;;;;;;;;;10379262;28;20033;-71
2022/01/14 02:57:14;;;;;;;24.57;7.97;;;;;;;;;;10374819;28;20061;-70
2022/01/14 03:02:18;;;;;;;21.27;6.83;;;;;;;;;;10377922;28;20164;-68
2022/01/14 03:07:23;;;;;;;15.10;6.07;;;;;;;;;;10374830;28;20034;-70
2022/01/14 03:12:26;;;;;;;27.17;7.07;;;;;;;;;;10384154;28;20050;-71
2022/01/14 03:17:30;;;;;;;5.17;1.07;;;;;;;;;;10374435;28;20136;-70
2022/01/14 03:22:35;;;;;;;12.38;4.35;;;;;;;;;;10372640;28;20041;-69
2022/01/14 03:27:39;;;;;;;27.17;8.70;;;;;;;;;;10377375;28;20040;-68
2022/01/14 03:32:42;;;;;;;33.77;8.63;;;;;;;;;;10374981;28;20121;-69
2022/01/14 03:37:46;;;;;;;29.25;8.27;;;;;;;;;;10398219;28;20064;-72
2022/01/14 03:42:50;;;;;;;14.90;6.20;;;;;;;;;;10377272;28;20053;-70
2022/01/14 03:47:53;;;;;;;12.23;4.63;;;;;;;;;;10374495;28;20050;-72
2022/01/14 03:52:58;;;;;;;25.87;8.53;;;;;;;;;;10376759;28;20114;-71
2022/01/14 03:58:01;;;;;;;24.30;6.57;;;;;;;;;;10370718;28;20245;-71
2022/01/14 04:03:06;;;;;;;16.30;7.07;;;;;;;;;;10363013;28;20045;-72
2022/01/14 04:08:10;;;;;;;33.00;9.40;;;;;;;;;;10371048;28;20064;-72
2022/01/14 04:13:19;;;;;;;25.87;7.80;;;;;;;;;;10373253;28;20054;-70
2022/01/14 04:18:22;;;;;;;18.43;7.20;;;;;;;;;;10369773;28;20054;-69
2022/01/14 04:23:27;;;;;;;26.20;8.93;;;;;;;;;;10372280;28;20513;-71
2022/01/14 04:28:34;;;;;;;34.53;9.80;;;;;;;;;;10376279;28;20053;-72
2022/01/14 04:33:37;;;;;;;20.77;7.07;;;;;;;;;;10408880;28;20045;-72
2022/01/14 04:38:42;;;;;;;38.95;9.40;;;;;;;;;;10376156;28;20107;-72
2022/01/14 04:43:46;;;;;;;34.73;10.53;;;;;;;;;;10373375;28;20034;-70
2022/01/14 04:48:49;;;;;;;31.33;8.63;;;;;;;;;;10364539;28;20038;-70
2022/01/14 04:53:54;;;;;;;37.47;10.13;;;;;;;;;;10367092;28;20030;-71
2022/01/14 04:58:57;;;;;;;34.63;9.70;;;;;;;;;;10373046;28;20099;-70
2022/01/14 05:04:01;;;;;;;27.90;8.25;;;;;;;;;;10364318;28;20038;-72
2022/01/14 05:09:17;;;;;;;31.88;10.18;;;;;;;;;;10370717;28;20549;-70
2022/01/14 05:14:20;;;;;;;29.07;8.37;;;;;;;;;;10371611;28;20033;-71
2022/01/14 05:19:23;;;;;;;17.27;5.87;;;;;;;;;;10371713;28;20435;-72
2022/01/14 05:24:27;;;;;;;15.73;5.17;;;;;;;;;;10387507;28;20068;-71
2022/01/14 05:29:31;;;;;;;25.60;7.07;;;;;;;;;;10397078;28;20168;-71
2022/01/14 05:34:35;;;;;;;25.48;8.63;;;;;;;;;;10379473;28;20096;-71
2022/01/14 05:39:40;;;;;;;34.50;9.68;;;;;;;;;;10384350;28;20061;-72
2022/01/14 05:44:44;;;;;;;31.93;9.47;;;;;;;;;;10386658;28;20445;-72
2022/01/14 05:49:50;;;;;;;30.67;9.00;;;;;;;;;;10381044;28;20022;-71
2022/01/14 05:54:55;;;;;;;26.77;7.27;;;;;;;;;;10384036;28;20124;-70
2022/01/14 05:59:58;;;;;;;9.47;3.07;;;;;;;;;;10378402;28;20034;-71
2022/01/14 06:05:02;;;;;;;33.80;9.97;;;;;;;;;;10378714;28;20519;-69
2022/01/14 06:10:08;;;;;;;10.98;3.33;;;;;;;;;;10384822;28;20509;-71
2022/01/14 06:15:11;;;;;;;33.17;8.60;;;;;;;;;;10380338;28;20453;-72
2022/01/14 06:20:15;;;;;;;20.77;6.53;;;;;;;;;;10382720;28;20078;-70
2022/01/14 06:25:19;;;;;;;19.73;6.83;;;;;;;;;;10380824;28;20107;-72
2022/01/14 06:30:22;;;;;;;27.30;8.50;;;;;;;;;;10380985;28;20077;-70
2022/01/14 06:35:26;;;;;;;24.50;8.80;;;;;;;;;;10378307;28;20407;-74
2022/01/14 06:40:31;;;;;;;35.37;9.27;;;;;;;;;;10376872;28;20069;-71
2022/01/14 06:45:34;;;;;;;31.40;8.27;;;;;;;;;;10376114;28;20315;-71
2022/01/14 06:50:40;;;;;;;31.83;10.23;;;;;;;;;;10378647;28;20025;-67
2022/01/14 06:55:45;;;;;;;30.77;9.77;;;;;;;;;;10385389;28;20045;-69
2022/01/14 07:00:48;;;;;;;27.93;7.80;;;;;;;;;;10406361;28;20037;-69
2022/01/14 07:05:51;;;;;;;15.07;4.70;;;;;;;;;;10399846;28;20025;-71
2022/01/14 07:10:56;;;;;;;12.60;5.23;;;;;;;;;;10367952;28;20029;-70
2022/01/14 07:15:59;;;;;;;26.33;7.90;;;;;;;;;;10378861;28;20038;-69
2022/01/14 07:21:03;;;;;;;31.00;9.37;;;;;;;;;;10390272;28;20446;-68
2022/01/14 07:26:08;;;;;;;35.33;10.15;;;;;;;;;;10401852;28;20103;-70
2022/01/14 07:31:11;;;;;;;35.73;11.47;;;;;;;;;;10403550;28;20118;-70
2022/01/14 07:36:14;;;;;;;34.37;11.10;;;;;;;;;;10405151;28;20103;-71
2022/01/14 07:41:18;;;;;;;43.57;12.03;;;;;;;;;;10416403;28;20032;-70
2022/01/14 07:46:23;;;;;;;33.37;9.93;;;;;;;;;;10409378;28;20112;-72
2022/01/14 07:51:26;;;;;;;31.25;10.73;;;;;;;;;;10411265;28;20049;-71
2022/01/14 07:56:30;;;;;;;32.50;10.68;;;;;;;;;;10420659;28;20050;-71
2022/01/14 08:01:34;;;;;;;22.67;8.65;;;;;;;;;;10411849;28;20014;-70
2022/01/14 08:06:44;;;;;;;34.80;13.60;;;;;;;;;;10420885;28;20111;-71
2022/01/14 08:11:49;;;;;;;27.00;8.93;;;;;;;;;;10410961;28;20061;-68
2022/01/14 08:16:52;;;;;;;29.63;11.10;;;;;;;;;;10410636;28;20114;-70
2022/01/14 08:21:55;;;;;;;22.70;9.23;;;;;;;;;;10379206;28;20045;-71
2022/01/14 08:27:00;;;;;;;22.40;10.18;;;;;;;;;;10377806;28;20053;-70
2022/01/14 08:32:04;;;;;;;24.20;10.40;;;;;;;;;;10379410;28;22374;-70
2022/01/14 08:37:07;;;;;;;21.35;9.98;;;;;;;;;;10369837;28;20068;-69
2022/01/14 08:42:12;;;;;;;20.27;10.32;;;;;;;;;;10376431;28;20052;-70
2022/01/14 08:47:15;;;;;;;16.95;9.13;;;;;;;;;;10377919;28;20392;-72
2022/01/14 08:52:18;;;;;;;22.10;9.55;;;;;;;;;;10370443;28;20038;-69
2022/01/14 08:57:23;;;;;;;17.70;9.07;;;;;;;;;;10394063;28;20041;-71
2022/01/14 09:02:25;;;;;;;17.48;9.32;;;;;;;;;;10383452;28;20033;-70
2022/01/14 09:07:29;;;;;;;17.75;9.20;;;;;;;;;;10389902;28;20097;-71
2022/01/14 09:12:34;;;;;;;17.17;8.65;;;;;;;;;;10400229;28;20487;-71
2022/01/14 09:17:37;;;;;;;15.70;7.53;;;;;;;;;;10383454;28;20034;-69
2022/01/14 09:22:47;;;;;;;17.08;9.43;;;;;;;;;;10380849;28;20037;-70
2022/01/14 09:27:52;;;;;;;13.77;8.10;;;;;;;;;;10373451;28;20058;-71
2022/01/14 09:32:55;;;;;;;18.70;8.02;;;;;;;;;;10381792;28;20038;-70
2022/01/14 09:37:58;;;;;;;;;;;;;;;;;;10371116;28;20456;-69
2022/01/14 09:43:03;;;;;;;16.77;9.30;;;;;;;;;;10386021;28;19925;-67
2022/01/14 09:48:26;;;;;;;15.45;9.15;;;;;;;;;;10378926;28;20373;-69
2022/01/14 09:53:30;;;;;;;12.82;8.23;;;;;;;;;;10380702;28;20030;-70
2022/01/14 09:58:37;;;;;;;13.32;7.75;;;;;;;;;;10377015;28;20125;-70
2022/01/14 10:03:51;;;;;;;14.93;8.40;;;;;;;;;;10369796;28;20060;-70
2022/01/14 10:09:03;;;;;;;15.38;8.07;;;;;;;;;;10381963;28;20088;-70
2022/01/14 10:14:09;;;;;;;14.47;8.90;;;;;;;;;;10375799;28;20172;-70
2022/01/14 10:19:19;;;;;;;15.30;9.70;;;;;;;;;;10374065;28;20038;-70
2022/01/14 10:24:23;;;;;;;18.00;10.80;;;;;;;;;;10382516;28;20022;-70
2022/01/14 10:29:32;;;;;;;15.68;9.65;;;;;;;;;;10376092;28;20041;-72
2022/01/14 10:34:36;;;;;;;16.60;9.07;;;;;;;;;;10379099;28;20037;-71
2022/01/14 10:39:47;;;;;;;17.85;10.90;;;;;;;;;;10368054;28;20046;-68
2022/01/14 10:44:51;;;;;;;14.25;8.43;;;;;;;;;;10360509;28;20120;-69
2022/01/14 10:49:56;;;;;;;16.50;9.35;;;;;;;;;;10367146;28;20080;-70
2022/01/14 10:55:00;;;;;;;14.05;9.63;;;;;;;;;;10380332;28;20131;-73
2022/01/14 11:00:16;;;;;;;15.10;9.15;;;;;;;;;;10392938;28;20346;-70
2022/01/14 11:05:20;;;;;;;14.85;8.00;;;;;;;;;;10377651;28;20034;-69
2022/01/14 11:10:24;;;;;;;13.25;8.77;;;;;;;;;;10386294;28;20030;-70
2022/01/14 11:15:30;;;;;;;11.68;8.05;;;;;;;;;;10397446;28;20033;-71
2022/01/14 11:20:37;;;;;;;13.60;8.30;;;;;;;;;;10410889;28;20037;-72
2022/01/14 11:25:43;;;;;;;14.20;9.25;;;;;;;;;;10395255;28;20038;-72
2022/01/14 11:30:48;;;;;;;13.25;9.00;;;;;;;;;;10409227;28;20109;-70
2022/01/14 11:35:56;;;;;;;12.68;8.75;;;;;;;;;;10389092;28;20064;-70
2022/01/14 11:40:59;;;;;;;12.63;8.27;;;;;;;;;;10375341;28;20069;-69
2022/01/14 11:46:04;;;;;;;14.77;8.77;;;;;;;;;;10365430;28;20089;-70
2022/01/14 11:51:08;;;;;;;14.18;8.70;;;;;;;;;;10361962;28;20038;-72
2022/01/14 11:56:30;;;;;;;16.05;9.35;;;;;;;;;;10375090;28;20549;-71
2022/01/14 12:01:34;;;;;;;14.95;9.15;;;;;;;;;;10371267;28;20509;-69
2022/01/14 12:06:59;;;;;;;20.33;9.13;;;;;;;;;;10377595;28;20425;-70
2022/01/14 12:12:22;;;;;;;11.90;7.60;;;;;;;;;;10397045;28;20052;-71
2022/01/14 12:17:43;;;;;;;14.67;7.93;;;;;;;;;;10397248;28;20659;-71
2022/01/14 12:23:06;;;;;;;14.07;8.68;;;;;;;;;;10383381;28;20093;-71
2022/01/14 12:28:16;;;;;;;14.43;8.43;;;;;;;;;;10404459;28;20034;-70
2022/01/14 12:33:34;;;;;;;12.70;7.60;;;;;;;;;;10414893;28;20026;-74
2022/01/14 12:38:40;;;;;;;14.63;8.23;;;;;;;;;;10423579;28;20034;-72
2022/01/14 12:43:47;;;;;;;15.18;8.88;;;;;;;;;;10410026;28;20045;-70
2022/01/14 12:48:52;;;;;;;13.25;7.72;;;;;;;;;;10380794;28;20051;-70
2022/01/14 12:53:57;;;;;;;13.52;7.57;;;;;;;;;;10384919;28;20759;-70
2022/01/14 12:59:02;;;;;;;13.35;6.85;;;;;;;;;;10373357;28;20041;-70
2022/01/14 13:04:08;;;;;;;14.45;8.35;;;;;;;;;;10369334;28;20104;-70
2022/01/14 13:09:13;;;;;;;13.32;6.28;;;;;;;;;;10371264;28;20189;-72
2022/01/14 13:14:19;;;;;;;12.65;6.13;;;;;;;;;;10368969;28;20041;-71
2022/01/14 13:19:23;;;;;;;11.50;5.90;;;;;;;;;;10365927;28;20073;-70
2022/01/14 13:24:28;;;;;;;11.30;6.40;;;;;;;;;;10375076;28;20461;-70
2022/01/14 13:29:36;;;;;;;13.85;6.45;;;;;;;;;;10364660;28;20097;-68
2022/01/14 13:34:44;;;;;;;12.20;5.40;;;;;;;;;;10371686;28;20683;-69
2022/01/14 13:40:01;;;;;;;10.55;5.00;;;;;;;;;;10375323;28;20048;-70
2022/01/14 13:45:05;;;;;;;10.02;4.43;;;;;;;;;;10371636;28;20041;-71
2022/01/14 13:50:09;;;;;;;7.95;3.90;;;;;;;;;;10372831;28;20057;-70
2022/01/14 13:55:14;;;;;;;7.85;3.42;;;;;;;;;;10380766;28;20051;-69
2022/01/14 14:00:19;;;;;;;7.95;3.55;;;;;;;;;;10378629;28;20529;-70
2022/01/14 14:05:39;;;;;;;6.07;3.00;;;;;;;;;;10378453;28;20720;-67
2022/01/14 14:16:04;;;;;;;16.17;5.28;;;;;;;;;;10382070;28;20489;-68
2022/01/14 14:21:15;;;;;;;5.88;2.50;;;;;;;;;;10375671;28;20065;-71
2022/01/14 14:26:29;;;;;;;6.22;2.67;;;;;;;;;;10404181;22;20131;-75
2022/01/14 14:31:33;;;;;;;16.60;5.38;;;;;;;;;;10446701;28;20041;-76
2022/01/14 14:36:37;;;;;;;9.50;2.10;;;;;;;;;;10445499;28;20140;-78
2022/01/14 14:41:42;;;;;;;3.92;2.00;;;;;;;;;;10433664;28;20104;-73
2022/01/14 14:46:45;;;;;;;5.05;2.60;;;;;;;;;;10434888;28;20037;-75
2022/01/14 14:51:48;;;;;;;9.07;2.22;;;;;;;;;;10433546;28;20212;-74
2022/01/14 14:56:52;;;;;;;11.20;2.38;;;;;;;;;;10465577;28;20029;-76
2022/01/14 15:01:55;;;;;;;4.53;1.85;;;;;;;;;;10433534;28;20037;-76
2022/01/14 15:06:58;;;;;;;3.97;1.90;;;;;;;;;;10442679;28;20082;-75
2022/01/14 15:12:03;;;;;;;4.28;1.95;;;;;;;;;;10445012;28;20051;-77
2022/01/14 15:18:10;;;;;;;4.47;1.95;;;;;;;;;;10441566;28;20147;-74
2022/01/14 15:22:56;;;;;;;3.25;1.60;;;;;;;;;;10444241;28;20056;-76
2022/01/14 15:28:00;;;;;;;8.52;1.70;;;;;;;;;;10441988;28;20131;-76
2022/01/14 15:33:08;;;;;;;3.47;1.80;;;;;;;;;;10442238;28;20037;-75
2022/01/14 15:38:11;;;;;;;39.07;4.73;;;;;;;;;;10438317;28;20428;-77
2022/01/14 15:43:31;;;;;;;6.70;2.20;;;;;;;;;;10442776;28;20482;-75
2022/01/14 15:48:34;;;;;;;6.03;2.40;;;;;;;;;;10437582;28;20041;-77
2022/01/14 15:53:37;;;;;;;6.07;2.10;;;;;;;;;;10439106;28;20412;-77
2022/01/14 15:58:41;;;;;;;6.95;2.35;;;;;;;;;;10441691;28;20121;-76
2022/01/14 16:03:45;;;;;;;7.35;1.95;;;;;;;;;;10438803;28;20033;-76
2022/01/14 16:08:47;;;;;;;6.07;2.28;;;;;;;;;;10436084;28;20083;-76
2022/01/14 16:13:58;;;;;;;6.18;2.33;;;;;;;;;;10460885;28;20496;-75
2022/01/14 16:19:03;;;;;;;5.18;1.98;;;;;;;;;;10436946;28;20049;-75
2022/01/14 16:24:06;;;;;;;6.45;2.38;;;;;;;;;;10437637;28;20120;-76
2022/01/14 16:29:10;;;;;;;5.82;2.33;;;;;;;;;;10458334;28;20532;-75
2022/01/14 16:34:14;;;;;;;4.00;2.20;;;;;;;;;;10428938;28;20461;-77
2022/01/14 16:39:17;;;;;;;9.88;3.00;;;;;;;;;;10431291;28;20112;-76
2022/01/14 16:44:27;;;;;;;10.60;4.18;;;;;;;;;;10435199;28;20044;-76
2022/01/14 16:49:30;;;;;;;;;;;;;;;;;;10425397;28;20056;-77
2022/01/14 16:54:33;;;;;;;8.73;3.83;;;;;;;;;;10433977;28;19963;-75
2022/01/14 16:59:37;;;;;;;12.20;4.47;;;;;;;;;;10427094;28;20041;-75
2022/01/14 17:04:41;;;;;;;11.93;4.17;;;;;;;;;;10430360;28;20065;-76
2022/01/14 17:09:45;;;;;;;10.98;4.30;;;;;;;;;;10437712;28;20075;-75
2022/01/14 17:14:49;;;;;;;13.30;4.60;;;;;;;;;;10433448;28;20078;-75
2022/01/14 17:19:52;;;;;;;11.03;4.00;;;;;;;;;;10443690;28;20044;-76
2022/01/14 17:24:59;;;;;;;10.13;4.17;;;;;;;;;;10451033;28;20048;-76
2022/01/14 17:30:04;;;;;;;14.27;4.70;;;;;;;;;;10443208;28;20083;-75
2022/01/14 17:35:08;;;;;;;10.07;4.60;;;;;;;;;;10445586;28;20056;-76
2022/01/14 17:40:12;;;;;;;13.32;5.20;;;;;;;;;;10441306;28;20045;-79
2022/01/14 17:45:15;;;;;;;;;;;;;;;;;;10453652;28;20079;-75
2022/01/14 17:50:20;;;;;;;15.53;5.13;;;;;;;;;;10437659;28;20594;-76
2022/01/14 17:55:23;;;;;;;16.90;5.40;;;;;;;;;;10447685;28;20547;-76
2022/01/14 18:00:26;;;;;;;14.67;5.93;;;;;;;;;;10439340;28;20042;-77
2022/01/14 18:05:30;;;;;;;16.60;6.17;;;;;;;;;;10442938;28;20132;-76
2022/01/14 18:10:33;;;;;;;17.23;5.07;;;;;;;;;;10448899;28;20127;-76
2022/01/14 18:15:36;;;;;;;12.10;5.50;;;;;;;;;;10441509;28;20182;-78
2022/01/14 18:20:42;;;;;;;13.40;6.03;;;;;;;;;;10441432;28;20136;-77
2022/01/14 18:25:46;;;;;;;17.00;6.83;;;;;;;;;;10454103;28;20037;-77
2022/01/14 18:30:54;;;;;;;16.97;6.00;;;;;;;;;;10443675;28;20047;-76
2022/01/14 18:35:58;;;;;;;18.47;5.73;;;;;;;;;;10443474;28;20570;-75
2022/01/14 18:41:01;;;;;;;16.70;6.18;;;;;;;;;;10442220;28;20044;-78
2022/01/14 18:46:06;;;;;;;17.97;6.93;;;;;;;;;;10445101;28;20091;-75
2022/01/14 18:51:11;;;;;;;13.90;5.83;;;;;;;;;;10442455;28;20029;-77
2022/01/14 18:56:15;;;;;;;14.80;5.27;;;;;;;;;;10437213;28;20037;-77
2022/01/14 19:01:18;;;;;;;15.48;6.68;;;;;;;;;;10437218;28;20132;-78
2022/01/14 19:06:23;;;;;;;18.30;7.20;;;;;;;;;;10447509;28;20111;-75
2022/01/14 19:11:26;;;;;;;15.30;6.80;;;;;;;;;;10445088;28;20530;-76
2022/01/14 19:16:28;;;;;;;18.53;6.57;;;;;;;;;;10445752;28;20060;-75
2022/01/14 19:21:33;;;;;;;17.63;6.93;;;;;;;;;;10446324;28;20417;-75
2022/01/14 19:26:36;;;;;;;20.27;7.80;;;;;;;;;;10466038;28;20213;-78
2022/01/14 19:31:39;;;;;;;16.10;6.90;;;;;;;;;;10448693;28;20481;-77
2022/01/14 19:36:43;;;;;;;17.30;7.13;;;;;;;;;;10444066;28;20036;-79
2022/01/14 19:41:46;;;;;;;;;;;;;;;;;;10442935;28;20051;-77
2022/01/14 19:46:49;;;;;;;19.13;6.53;;;;;;;;;;10445114;28;20007;-75
2022/01/14 19:51:53;;;;;;;16.83;6.53;;;;;;;;;;10437274;28;20052;-77
2022/01/14 19:56:56;;;;;;;17.40;6.37;;;;;;;;;;10441245;28;20041;-81
2022/01/14 20:02:00;;;;;;;13.33;6.50;;;;;;;;;;10443373;28;20043;-77
2022/01/14 20:07:04;;;;;;;14.55;6.70;;;;;;;;;;10444657;28;20033;-77
2022/01/14 20:12:07;;;;;;;15.60;6.90;;;;;;;;;;10443017;28;20056;-77
2022/01/14 20:17:10;;;;;;;17.40;6.97;;;;;;;;;;10444770;28;20102;-78
2022/01/14 20:22:14;;;;;;;18.17;6.50;;;;;;;;;;10441337;28;20298;-75
2022/01/14 20:27:17;;;;;;;18.33;6.18;;;;;;;;;;10442965;28;20086;-78
2022/01/14 20:32:20;;;;;;;22.23;7.07;;;;;;;;;;10450590;28;20049;-78
2022/01/14 20:37:24;;;;;;;16.23;6.67;;;;;;;;;;10444893;28;20341;-80
2022/01/14 20:42:28;;;;;;;;;;;;;;;;;;10442878;28;20039;-75
2022/01/14 20:47:31;;;;;;;14.20;6.70;;;;;;;;;;10443009;28;20230;-80
2022/01/14 20:52:35;;;;;;;17.90;6.67;;;;;;;;;;10441468;28;20417;-77
2022/01/14 20:57:38;;;;;;;;;;;;;;;;;;10432491;28;20033;-72
2022/01/14 21:02:41;;;;;;;26.10;7.03;;;;;;;;;;10438759;28;19921;-78
2022/01/14 21:08:06;;;;;;;17.73;6.53;;;;;;;;;;10440053;28;20106;-76
2022/01/14 21:13:09;;;;;;;14.60;7.10;;;;;;;;;;10438954;28;20174;-76
2022/01/14 21:18:12;;;;;;;15.37;6.73;;;;;;;;;;10439010;28;20488;-78
2022/01/14 21:23:16;;;;;;;21.80;7.00;;;;;;;;;;10443982;28;20052;-75
2022/01/14 21:28:20;;;;;;;22.20;7.03;;;;;;;;;;10433048;28;20041;-76
2022/01/14 21:33:23;;;;;;;15.43;6.67;;;;;;;;;;10441498;28;20144;-78
2022/01/14 21:38:28;;;;;;;16.57;7.20;;;;;;;;;;10439814;28;20025;-77
2022/01/14 21:43:31;;;;;;;18.70;7.20;;;;;;;;;;10440433;28;20059;-77
2022/01/14 21:48:34;;;;;;;16.33;6.90;;;;;;;;;;10443873;28;20037;-79
2022/01/14 21:53:38;;;;;;;17.10;7.37;;;;;;;;;;10438691;28;20041;-77
2022/01/14 21:58:40;;;;;;;;;;;;;;;;;;10458406;28;20033;-79
2022/01/14 22:03:43;;;;;;;16.40;6.53;;;;;;;;;;10445535;28;20519;-78
2022/01/14 22:08:48;;;;;;;14.90;6.77;;;;;;;;;;10441151;28;20040;-77
2022/01/14 22:13:58;;;;;;;17.20;7.35;;;;;;;;;;10449536;28;20037;-76
2022/01/14 22:19:01;;;;;;;18.63;6.67;;;;;;;;;;10446239;28;20083;-76
2022/01/14 22:24:06;;;;;;;16.17;6.83;;;;;;;;;;10449338;28;20451;-76
2022/01/14 22:29:09;;;;;;;17.93;7.50;;;;;;;;;;10446417;28;20041;-77
2022/01/14 22:34:12;;;;;;;21.83;8.53;;;;;;;;;;10448757;28;20516;-76
2022/01/14 22:39:16;;;;;;;20.27;7.30;;;;;;;;;;10445244;28;20041;-76
2022/01/14 22:44:19;;;;;;;;;;;;;;;;;;10449938;28;20115;-76
2022/01/14 22:49:23;;;;;;;24.23;7.27;;;;;;;;;;10442004;28;19931;-75
2022/01/14 22:54:27;;;;;;;16.55;6.20;;;;;;;;;;10443310;28;20400;-74
2022/01/14 22:59:30;;;;;;;;;;;;;;;;;;10445270;28;20040;-76
2022/01/14 23:04:32;;;;;;;21.10;6.63;;;;;;;;;;10448685;28;20319;-76
2022/01/14 23:09:37;;;;;;;15.67;6.63;;;;;;;;;;10444149;28;20070;-77
2022/01/14 23:14:40;;;;;;;;;;;;;;;;;;10434062;22;20056;-73
2022/01/14 23:19:43;;;;;;;14.60;6.30;;;;;;;;;;10420120;28;19921;-74
2022/01/14 23:24:48;;;;;;;19.10;8.07;;;;;;;;;;10435940;28;20059;-74
2022/01/14 23:29:51;;;;;;;26.20;10.30;;;;;;;;;;10418802;28;20071;-73
2022/01/14 23:34:54;;;;;;;14.57;6.73;;;;;;;;;;10424096;28;20053;-73
2022/01/14 23:39:58;;;;;;;18.03;7.13;;;;;;;;;;10422687;28;20183;-73
2022/01/14 23:45:21;;;;;;;;;;;;;;;;;;10417859;28;20041;-71
2022/01/14 23:50:25;;;;;;;16.60;6.73;;;;;;;;;;10415776;28;20035;-72
2022/01/14 23:55:29;;;;;;;17.70;6.82;;;;;;;;;;10419509;28;20036;-72
